sensor_id;sensor_type;location;lat;lon;timestamp;pressure;altitude;pressure_sealevel;temperature;humidity
65013;BME280;51715;39.432;-77.518;2022-09-03T00:00:18;100208.40;;;30.62;31.94
65013;BME280;51715;39.432;-77.518;2022-09-03T00:02:51;100209.36;;;30.31;31.23
65013;BME280;51715;39.432;-77.518;2022-09-03T00:05:31;100209.46;;;30.02;31.63
65013;BME280;51715;39.432;-77.518;2022-09-03T00:08:06;100211.53;;;30.17;31.92
65013;BME280;51715;39.432;-77.518;2022-09-03T00:10:45;100211.53;;;30.29;31.78
65013;BME280;51715;39.432;-77.518;2022-09-03T00:13:19;100212.43;;;29.90;31.99
65013;BME280;51715;39.432;-77.518;2022-09-03T00:15:50;100216.46;;;29.75;32.26
65013;BME280;51715;39.432;-77.518;2022-09-03T00:18:22;100218.36;;;29.90;32.42
65013;BME280;51715;39.432;-77.518;2022-09-03T00:20:52;100221.29;;;29.80;32.51
65013;BME280;51715;39.432;-77.518;2022-09-03T00:23:25;100223.88;;;29.69;32.57
65013;BME280;51715;39.432;-77.518;2022-09-03T00:25:59;100226.84;;;29.64;32.26
65013;BME280;51715;39.432;-77.518;2022-09-03T00:28:34;100224.40;;;29.27;32.59
65013;BME280;51715;39.432;-77.518;2022-09-03T00:31:08;100224.85;;;29.46;32.74
65013;BME280;51715;39.432;-77.518;2022-09-03T00:33:39;100224.51;;;29.34;32.46
65013;BME280;51715;39.432;-77.518;2022-09-03T00:36:15;100224.35;;;29.24;32.78
65013;BME280;51715;39.432;-77.518;2022-09-03T00:38:45;100228.32;;;29.31;32.48
65013;BME280;51715;39.432;-77.518;2022-09-03T00:41:22;100229.44;;;29.26;32.53
65013;BME280;51715;39.432;-77.518;2022-09-03T00:44:08;100232.23;;;28.98;32.21
65013;BME280;51715;39.432;-77.518;2022-09-03T00:46:46;100235.39;;;29.16;32.55
65013;BME280;51715;39.432;-77.518;2022-09-03T00:49:25;100236.51;;;29.18;32.40
65013;BME280;51715;39.432;-77.518;2022-09-03T00:52:05;100233.94;;;28.93;32.61
65013;BME280;51715;39.432;-77.518;2022-09-03T00:54:42;100235.42;;;28.96;32.39
65013;BME280;51715;39.432;-77.518;2022-09-03T00:57:25;100236.28;;;29.14;32.57
65013;BME280;51715;39.432;-77.518;2022-09-03T01:00:05;100234.34;;;28.85;32.48
65013;BME280;51715;39.432;-77.518;2022-09-03T01:02:45;100233.57;;;28.72;33.01
65013;BME280;51715;39.432;-77.518;2022-09-03T01:05:26;100237.00;;;28.65;32.87
65013;BME280;51715;39.432;-77.518;2022-09-03T01:08:06;100243.29;;;28.61;33.37
65013;BME280;51715;39.432;-77.518;2022-09-03T01:10:44;100244.51;;;28.71;32.95
65013;BME280;51715;39.432;-77.518;2022-09-03T01:13:19;100248.71;;;28.87;32.82
65013;BME280;51715;39.432;-77.518;2022-09-03T01:16:00;100256.07;;;29.00;32.83
65013;BME280;51715;39.432;-77.518;2022-09-03T01:18:38;100259.32;;;28.83;32.96
65013;BME280;51715;39.432;-77.518;2022-09-03T01:21:23;100260.85;;;29.05;33.23
65013;BME280;51715;39.432;-77.518;2022-09-03T01:24:14;100262.71;;;28.77;33.17
65013;BME280;51715;39.432;-77.518;2022-09-03T01:26:57;100266.14;;;28.98;33.10
65013;BME280;51715;39.432;-77.518;2022-09-03T01:29:35;100269.49;;;28.45;33.52
65013;BME280;51715;39.432;-77.518;2022-09-03T01:32:12;100270.56;;;28.59;33.38
65013;BME280;51715;39.432;-77.518;2022-09-03T01:34:50;100274.24;;;28.61;33.18
65013;BME280;51715;39.432;-77.518;2022-09-03T01:37:29;100274.25;;;28.89;33.41
65013;BME280;51715;39.432;-77.518;2022-09-03T01:40:08;100277.43;;;29.00;33.20
65013;BME280;51715;39.432;-77.518;2022-09-03T01:42:50;100282.22;;;28.78;32.99
65013;BME280;51715;39.432;-77.518;2022-09-03T01:45:30;100286.06;;;28.88;33.35
65013;BME280;51715;39.432;-77.518;2022-09-03T01:48:13;100287.12;;;28.52;33.70
65013;BME280;51715;39.432;-77.518;2022-09-03T01:50:52;100290.91;;;28.78;33.76
65013;BME280;51715;39.432;-77.518;2022-09-03T01:53:37;100293.50;;;28.55;33.95
65013;BME280;51715;39.432;-77.518;2022-09-03T01:56:18;100292.60;;;28.57;34.03
65013;BME280;51715;39.432;-77.518;2022-09-03T01:58:58;100300.86;;;28.52;34.20
65013;BME280;51715;39.432;-77.518;2022-09-03T02:01:32;100303.96;;;28.75;34.23
65013;BME280;51715;39.432;-77.518;2022-09-03T02:04:12;100306.08;;;28.75;34.18
65013;BME280;51715;39.432;-77.518;2022-09-03T02:06:40;100305.83;;;28.74;34.11
65013;BME280;51715;39.432;-77.518;2022-09-03T02:09:08;100303.70;;;28.62;34.27
65013;BME280;51715;39.432;-77.518;2022-09-03T02:11:37;100302.69;;;28.48;34.50
65013;BME280;51715;39.432;-77.518;2022-09-03T02:14:05;100305.14;;;28.63;34.87
65013;BME280;51715;39.432;-77.518;2022-09-03T02:16:34;100304.78;;;28.59;34.92
65013;BME280;51715;39.432;-77.518;2022-09-03T02:19:05;100307.26;;;28.51;35.09
65013;BME280;51715;39.432;-77.518;2022-09-03T02:21:37;100306.58;;;28.18;35.08
65013;BME280;51715;39.432;-77.518;2022-09-03T02:24:07;100306.94;;;28.31;35.60
65013;BME280;51715;39.432;-77.518;2022-09-03T02:26:35;100306.60;;;28.28;35.21
65013;BME280;51715;39.432;-77.518;2022-09-03T02:29:04;100303.82;;;28.23;35.36
65013;BME280;51715;39.432;-77.518;2022-09-03T02:31:32;100302.70;;;28.05;35.25
65013;BME280;51715;39.432;-77.518;2022-09-03T02:34:01;100302.09;;;28.16;35.53
65013;BME280;51715;39.432;-77.518;2022-09-03T02:36:33;100308.12;;;27.64;36.77
65013;BME280;51715;39.432;-77.518;2022-09-03T02:39:01;100307.59;;;27.52;36.53
65013;BME280;51715;39.432;-77.518;2022-09-03T02:41:30;100308.98;;;27.59;36.53
65013;BME280;51715;39.432;-77.518;2022-09-03T02:44:01;100309.62;;;27.86;36.65
65013;BME280;51715;39.432;-77.518;2022-09-03T02:46:34;100308.88;;;27.87;36.12
65013;BME280;51715;39.432;-77.518;2022-09-03T02:49:04;100305.69;;;27.89;35.94
65013;BME280;51715;39.432;-77.518;2022-09-03T02:51:34;100304.40;;;28.01;36.02
65013;BME280;51715;39.432;-77.518;2022-09-03T02:54:03;100305.53;;;28.00;35.97
65013;BME280;51715;39.432;-77.518;2022-09-03T02:56:31;100305.75;;;28.08;35.73
65013;BME280;51715;39.432;-77.518;2022-09-03T02:59:01;100311.36;;;28.01;36.10
65013;BME280;51715;39.432;-77.518;2022-09-03T03:01:29;100312.01;;;27.75;36.01
65013;BME280;51715;39.432;-77.518;2022-09-03T03:03:58;100316.40;;;27.76;36.37
65013;BME280;51715;39.432;-77.518;2022-09-03T03:06:26;100310.02;;;27.43;37.70
65013;BME280;51715;39.432;-77.518;2022-09-03T03:08:55;100310.19;;;27.48;37.32
65013;BME280;51715;39.432;-77.518;2022-09-03T03:11:23;100311.47;;;27.28;37.14
65013;BME280;51715;39.432;-77.518;2022-09-03T03:13:51;100315.80;;;27.74;37.83
65013;BME280;51715;39.432;-77.518;2022-09-03T03:16:20;100312.16;;;27.57;37.65
65013;BME280;51715;39.432;-77.518;2022-09-03T03:18:48;100314.67;;;27.26;37.31
65013;BME280;51715;39.432;-77.518;2022-09-03T03:21:17;100321.98;;;27.55;37.68
65013;BME280;51715;39.432;-77.518;2022-09-03T03:23:46;100322.87;;;27.50;37.60
65013;BME280;51715;39.432;-77.518;2022-09-03T03:26:16;100323.79;;;27.53;37.71
65013;BME280;51715;39.432;-77.518;2022-09-03T03:28:47;100319.20;;;27.53;37.55
65013;BME280;51715;39.432;-77.518;2022-09-03T03:31:17;100320.08;;;27.37;37.43
65013;BME280;51715;39.432;-77.518;2022-09-03T03:33:49;100325.33;;;27.24;38.24
65013;BME280;51715;39.432;-77.518;2022-09-03T03:36:17;100326.21;;;27.32;37.70
65013;BME280;51715;39.432;-77.518;2022-09-03T03:38:46;100331.09;;;27.31;38.00
65013;BME280;51715;39.432;-77.518;2022-09-03T03:41:16;100333.28;;;27.42;37.67
65013;BME280;51715;39.432;-77.518;2022-09-03T03:43:45;100335.29;;;27.57;37.91
65013;BME280;51715;39.432;-77.518;2022-09-03T03:46:13;100332.43;;;27.51;38.04
65013;BME280;51715;39.432;-77.518;2022-09-03T03:48:41;100333.49;;;26.88;38.67
65013;BME280;51715;39.432;-77.518;2022-09-03T03:51:10;100338.13;;;27.06;38.28
65013;BME280;51715;39.432;-77.518;2022-09-03T03:53:38;100342.55;;;27.16;37.71
65013;BME280;51715;39.432;-77.518;2022-09-03T03:56:09;100350.06;;;27.05;38.02
65013;BME280;51715;39.432;-77.518;2022-09-03T03:58:38;100359.82;;;26.54;39.47
65013;BME280;51715;39.432;-77.518;2022-09-03T04:05:19;100357.79;;;27.04;37.47
65013;BME280;51715;39.432;-77.518;2022-09-03T04:07:49;100355.87;;;27.30;36.95
65013;BME280;51715;39.432;-77.518;2022-09-03T04:10:18;100355.02;;;27.18;37.83
65013;BME280;51715;39.432;-77.518;2022-09-03T04:12:46;100352.72;;;27.53;37.66
65013;BME280;51715;39.432;-77.518;2022-09-03T04:15:15;100351.76;;;27.70;37.45
65013;BME280;51715;39.432;-77.518;2022-09-03T04:17:44;100353.40;;;27.10;38.42
65013;BME280;51715;39.432;-77.518;2022-09-03T04:20:13;100350.81;;;27.47;38.27
65013;BME280;51715;39.432;-77.518;2022-09-03T04:22:41;100356.75;;;27.37;38.13
65013;BME280;51715;39.432;-77.518;2022-09-03T04:25:10;100358.68;;;27.66;37.81
65013;BME280;51715;39.432;-77.518;2022-09-03T04:27:39;100358.34;;;27.64;38.08
65013;BME280;51715;39.432;-77.518;2022-09-03T04:30:08;100360.45;;;27.45;38.34
65013;BME280;51715;39.432;-77.518;2022-09-03T04:32:36;100358.32;;;27.50;38.30
65013;BME280;51715;39.432;-77.518;2022-09-03T04:35:04;100359.29;;;27.47;38.34
65013;BME280;51715;39.432;-77.518;2022-09-03T04:37:32;100359.88;;;27.43;38.50
65013;BME280;51715;39.432;-77.518;2022-09-03T04:40:01;100361.03;;;27.28;39.14
65013;BME280;51715;39.432;-77.518;2022-09-03T04:42:30;100364.83;;;27.33;38.60
65013;BME280;51715;39.432;-77.518;2022-09-03T04:44:59;100367.43;;;27.23;38.28
65013;BME280;51715;39.432;-77.518;2022-09-03T04:47:26;100371.57;;;27.46;38.36
65013;BME280;51715;39.432;-77.518;2022-09-03T04:49:55;100376.76;;;27.43;38.65
65013;BME280;51715;39.432;-77.518;2022-09-03T04:52:23;100377.55;;;27.40;38.62
65013;BME280;51715;39.432;-77.518;2022-09-03T04:54:51;100378.22;;;27.43;38.37
65013;BME280;51715;39.432;-77.518;2022-09-03T04:57:19;100375.33;;;27.42;38.79
65013;BME280;51715;39.432;-77.518;2022-09-03T04:59:48;100374.19;;;27.41;38.99
65013;BME280;51715;39.432;-77.518;2022-09-03T05:02:16;100370.51;;;27.41;39.02
65013;BME280;51715;39.432;-77.518;2022-09-03T05:04:44;100365.32;;;27.44;38.98
65013;BME280;51715;39.432;-77.518;2022-09-03T05:07:13;100363.07;;;27.42;38.98
65013;BME280;51715;39.432;-77.518;2022-09-03T05:09:42;100364.45;;;27.31;39.19
65013;BME280;51715;39.432;-77.518;2022-09-03T05:12:10;100366.88;;;27.30;39.32
65013;BME280;51715;39.432;-77.518;2022-09-03T05:14:37;100365.42;;;27.31;39.37
65013;BME280;51715;39.432;-77.518;2022-09-03T05:17:05;100369.50;;;27.31;39.74
65013;BME280;51715;39.432;-77.518;2022-09-03T05:19:33;100369.55;;;27.14;39.74
65013;BME280;51715;39.432;-77.518;2022-09-03T05:22:01;100368.05;;;27.05;39.46
65013;BME280;51715;39.432;-77.518;2022-09-03T05:24:30;100370.01;;;27.14;39.75
65013;BME280;51715;39.432;-77.518;2022-09-03T05:26:58;100368.66;;;27.58;40.23
65013;BME280;51715;39.432;-77.518;2022-09-03T05:29:26;100365.99;;;27.14;39.76
65013;BME280;51715;39.432;-77.518;2022-09-03T05:31:54;100366.48;;;27.16;39.71
65013;BME280;51715;39.432;-77.518;2022-09-03T05:34:22;100367.42;;;27.14;39.41
65013;BME280;51715;39.432;-77.518;2022-09-03T05:36:50;100371.54;;;27.19;39.36
65013;BME280;51715;39.432;-77.518;2022-09-03T05:39:19;100369.67;;;27.18;40.07
65013;BME280;51715;39.432;-77.518;2022-09-03T05:41:47;100365.37;;;27.27;39.95
65013;BME280;51715;39.432;-77.518;2022-09-03T05:44:15;100356.01;;;27.39;39.73
65013;BME280;51715;39.432;-77.518;2022-09-03T05:46:44;100354.47;;;27.56;39.74
65013;BME280;51715;39.432;-77.518;2022-09-03T05:49:12;100359.67;;;27.32;39.43
65013;BME280;51715;39.432;-77.518;2022-09-03T05:51:41;100363.47;;;27.21;41.09
65013;BME280;51715;39.432;-77.518;2022-09-03T05:54:09;100360.90;;;26.87;40.69
65013;BME280;51715;39.432;-77.518;2022-09-03T05:56:39;100354.55;;;27.26;40.42
65013;BME280;51715;39.432;-77.518;2022-09-03T05:59:09;100348.21;;;26.81;40.70
65013;BME280;51715;39.432;-77.518;2022-09-03T06:01:38;100349.46;;;27.02;40.01
65013;BME280;51715;39.432;-77.518;2022-09-03T06:04:09;100343.18;;;26.92;40.85
65013;BME280;51715;39.432;-77.518;2022-09-03T06:06:40;100344.11;;;26.87;40.20
65013;BME280;51715;39.432;-77.518;2022-09-03T06:09:11;100341.86;;;27.15;40.22
65013;BME280;51715;39.432;-77.518;2022-09-03T06:11:41;100333.73;;;27.20;40.52
65013;BME280;51715;39.432;-77.518;2022-09-03T06:14:11;100333.01;;;27.09;40.09
65013;BME280;51715;39.432;-77.518;2022-09-03T06:16:40;100329.96;;;26.93;40.43
65013;BME280;51715;39.432;-77.518;2022-09-03T06:19:09;100333.00;;;27.14;40.13
65013;BME280;51715;39.432;-77.518;2022-09-03T06:21:40;100337.19;;;27.22;39.95
65013;BME280;51715;39.432;-77.518;2022-09-03T06:24:10;100340.47;;;27.00;40.51
65013;BME280;51715;39.432;-77.518;2022-09-03T06:26:38;100343.10;;;27.33;40.29
65013;BME280;51715;39.432;-77.518;2022-09-03T06:29:06;100343.10;;;27.12;40.77
65013;BME280;51715;39.432;-77.518;2022-09-03T06:31:35;100344.62;;;26.77;41.26
65013;BME280;51715;39.432;-77.518;2022-09-03T06:34:04;100353.61;;;26.39;41.73
65013;BME280;51715;39.432;-77.518;2022-09-03T06:36:33;100350.38;;;26.61;41.87
65013;BME280;51715;39.432;-77.518;2022-09-03T06:39:01;100351.00;;;26.62;42.02
65013;BME280;51715;39.432;-77.518;2022-09-03T06:41:31;100351.84;;;26.89;41.72
65013;BME280;51715;39.432;-77.518;2022-09-03T06:44:01;100354.70;;;26.72;41.74
65013;BME280;51715;39.432;-77.518;2022-09-03T06:46:30;100359.35;;;26.31;42.29
65013;BME280;51715;39.432;-77.518;2022-09-03T06:48:58;100362.44;;;26.24;42.15
65013;BME280;51715;39.432;-77.518;2022-09-03T06:51:29;100366.71;;;26.65;42.12
65013;BME280;51715;39.432;-77.518;2022-09-03T06:54:00;100362.76;;;26.79;41.57
65013;BME280;51715;39.432;-77.518;2022-09-03T06:56:30;100360.02;;;26.76;41.21
65013;BME280;51715;39.432;-77.518;2022-09-03T06:59:02;100350.05;;;26.90;40.88
65013;BME280;51715;39.432;-77.518;2022-09-03T07:01:32;100354.40;;;26.98;40.71
65013;BME280;51715;39.432;-77.518;2022-09-03T07:04:03;100349.41;;;26.75;41.36
65013;BME280;51715;39.432;-77.518;2022-09-03T07:06:32;100349.89;;;26.30;42.74
65013;BME280;51715;39.432;-77.518;2022-09-03T07:09:01;100353.08;;;26.05;43.01
65013;BME280;51715;39.432;-77.518;2022-09-03T07:11:31;100355.60;;;25.55;43.99
65013;BME280;51715;39.432;-77.518;2022-09-03T07:13:59;100354.11;;;25.96;43.05
65013;BME280;51715;39.432;-77.518;2022-09-03T07:16:31;100359.80;;;26.16;42.56
65013;BME280;51715;39.432;-77.518;2022-09-03T07:19:00;100359.78;;;26.56;41.85
65013;BME280;51715;39.432;-77.518;2022-09-03T07:21:30;100364.22;;;26.52;42.18
65013;BME280;51715;39.432;-77.518;2022-09-03T07:23:58;100368.32;;;25.98;43.06
65013;BME280;51715;39.432;-77.518;2022-09-03T07:26:28;100369.47;;;26.25;42.80
65013;BME280;51715;39.432;-77.518;2022-09-03T07:28:57;100377.81;;;26.64;41.95
65013;BME280;51715;39.432;-77.518;2022-09-03T07:31:37;100374.53;;;26.42;41.91
65013;BME280;51715;39.432;-77.518;2022-09-03T07:34:08;100372.62;;;26.29;41.98
65013;BME280;51715;39.432;-77.518;2022-09-03T07:36:38;100374.00;;;26.22;43.15
65013;BME280;51715;39.432;-77.518;2022-09-03T07:39:07;100371.66;;;26.19;43.30
65013;BME280;51715;39.432;-77.518;2022-09-03T07:41:36;100371.63;;;26.13;43.01
65013;BME280;51715;39.432;-77.518;2022-09-03T07:44:06;100372.13;;;26.15;43.03
65013;BME280;51715;39.432;-77.518;2022-09-03T07:46:36;100371.54;;;26.19;42.60
65013;BME280;51715;39.432;-77.518;2022-09-03T07:49:05;100375.06;;;26.72;42.12
65013;BME280;51715;39.432;-77.518;2022-09-03T07:51:35;100376.92;;;26.91;42.05
65013;BME280;51715;39.432;-77.518;2022-09-03T07:54:05;100377.58;;;26.43;42.20
65013;BME280;51715;39.432;-77.518;2022-09-03T07:56:34;100379.82;;;26.51;42.42
65013;BME280;51715;39.432;-77.518;2022-09-03T07:59:04;100372.84;;;26.89;41.98
65013;BME280;51715;39.432;-77.518;2022-09-03T08:01:36;100377.48;;;25.87;44.02
65013;BME280;51715;39.432;-77.518;2022-09-03T08:04:06;100370.65;;;26.06;43.85
65013;BME280;51715;39.432;-77.518;2022-09-03T08:06:35;100368.45;;;25.88;43.74
65013;BME280;51715;39.432;-77.518;2022-09-03T08:09:06;100373.03;;;25.78;44.22
65013;BME280;51715;39.432;-77.518;2022-09-03T08:11:38;100365.74;;;25.40;44.90
65013;BME280;51715;39.432;-77.518;2022-09-03T08:14:09;100366.09;;;25.40;45.56
65013;BME280;51715;39.432;-77.518;2022-09-03T08:16:38;100364.57;;;25.12;45.24
65013;BME280;51715;39.432;-77.518;2022-09-03T08:19:07;100366.89;;;25.37;45.76
65013;BME280;51715;39.432;-77.518;2022-09-03T08:21:35;100363.08;;;25.14;45.50
65013;BME280;51715;39.432;-77.518;2022-09-03T08:24:04;100369.34;;;24.82;46.01
65013;BME280;51715;39.432;-77.518;2022-09-03T08:26:34;100363.16;;;24.98;46.61
65013;BME280;51715;39.432;-77.518;2022-09-03T08:29:04;100368.89;;;25.24;46.35
65013;BME280;51715;39.432;-77.518;2022-09-03T08:31:33;100368.29;;;24.99;46.29
65013;BME280;51715;39.432;-77.518;2022-09-03T08:34:04;100372.86;;;25.09;46.02
65013;BME280;51715;39.432;-77.518;2022-09-03T08:36:34;100371.85;;;25.21;45.60
65013;BME280;51715;39.432;-77.518;2022-09-03T08:39:06;100374.64;;;24.85;46.05
65013;BME280;51715;39.432;-77.518;2022-09-03T08:41:45;100383.77;;;24.47;47.50
65013;BME280;51715;39.432;-77.518;2022-09-03T08:44:22;100386.30;;;25.17;46.09
65013;BME280;51715;39.432;-77.518;2022-09-03T08:46:58;100377.18;;;25.14;45.48
65013;BME280;51715;39.432;-77.518;2022-09-03T08:49:31;100378.01;;;25.48;45.05
65013;BME280;51715;39.432;-77.518;2022-09-03T08:52:04;100376.79;;;25.80;44.49
65013;BME280;51715;39.432;-77.518;2022-09-03T08:54:35;100377.74;;;26.09;44.08
65013;BME280;51715;39.432;-77.518;2022-09-03T08:57:05;100387.17;;;25.42;45.58
65013;BME280;51715;39.432;-77.518;2022-09-03T08:59:37;100379.05;;;25.37;44.94
65013;BME280;51715;39.432;-77.518;2022-09-03T09:02:16;100383.99;;;25.30;45.62
65013;BME280;51715;39.432;-77.518;2022-09-03T09:04:57;100381.35;;;25.17;45.59
65013;BME280;51715;39.432;-77.518;2022-09-03T09:07:29;100376.77;;;25.71;45.16
65013;BME280;51715;39.432;-77.518;2022-09-03T09:10:04;100372.91;;;25.06;46.11
65013;BME280;51715;39.432;-77.518;2022-09-03T09:12:44;100373.44;;;25.41;45.79
65013;BME280;51715;39.432;-77.518;2022-09-03T09:15:25;100371.45;;;25.37;44.85
65013;BME280;51715;39.432;-77.518;2022-09-03T09:18:04;100371.03;;;25.91;44.52
65013;BME280;51715;39.432;-77.518;2022-09-03T09:20:41;100375.12;;;26.01;44.42
65013;BME280;51715;39.432;-77.518;2022-09-03T09:23:17;100376.57;;;25.62;45.44
65013;BME280;51715;39.432;-77.518;2022-09-03T09:25:50;100376.11;;;25.35;46.13
65013;BME280;51715;39.432;-77.518;2022-09-03T09:28:23;100378.90;;;25.15;46.73
65013;BME280;51715;39.432;-77.518;2022-09-03T09:30:55;100375.19;;;24.85;47.03
65013;BME280;51715;39.432;-77.518;2022-09-03T09:33:24;100378.70;;;24.98;46.90
65013;BME280;51715;39.432;-77.518;2022-09-03T09:35:52;100375.36;;;25.28;46.22
65013;BME280;51715;39.432;-77.518;2022-09-03T09:38:28;100374.93;;;25.63;45.38
65013;BME280;51715;39.432;-77.518;2022-09-03T09:41:06;100374.84;;;25.41;46.02
65013;BME280;51715;39.432;-77.518;2022-09-03T09:43:35;100381.76;;;25.51;45.23
65013;BME280;51715;39.432;-77.518;2022-09-03T09:46:08;100375.92;;;25.71;45.04
65013;BME280;51715;39.432;-77.518;2022-09-03T09:48:46;100379.95;;;25.69;46.39
65013;BME280;51715;39.432;-77.518;2022-09-03T09:51:20;100386.31;;;25.69;45.44
65013;BME280;51715;39.432;-77.518;2022-09-03T09:54:00;100380.52;;;25.76;44.88
65013;BME280;51715;39.432;-77.518;2022-09-03T09:56:29;100394.45;;;25.71;45.16
65013;BME280;51715;39.432;-77.518;2022-09-03T09:59:06;100399.85;;;25.92;44.25
65013;BME280;51715;39.432;-77.518;2022-09-03T10:01:37;100393.84;;;25.96;43.59
65013;BME280;51715;39.432;-77.518;2022-09-03T10:04:10;100396.13;;;26.17;43.81
65013;BME280;51715;39.432;-77.518;2022-09-03T10:06:40;100396.49;;;26.29;43.94
65013;BME280;51715;39.432;-77.518;2022-09-03T10:09:12;100390.77;;;26.17;43.47
65013;BME280;51715;39.432;-77.518;2022-09-03T10:11:43;100398.75;;;26.09;44.12
65013;BME280;51715;39.432;-77.518;2022-09-03T10:14:20;100399.88;;;25.69;45.31
65013;BME280;51715;39.432;-77.518;2022-09-03T10:16:55;100399.94;;;25.56;45.50
65013;BME280;51715;39.432;-77.518;2022-09-03T10:19:33;100404.87;;;25.97;44.99
65013;BME280;51715;39.432;-77.518;2022-09-03T10:22:15;100402.11;;;26.04;44.56
65013;BME280;51715;39.432;-77.518;2022-09-03T10:24:51;100403.31;;;25.48;45.70
65013;BME280;51715;39.432;-77.518;2022-09-03T10:27:23;100401.87;;;26.15;44.82
65013;BME280;51715;39.432;-77.518;2022-09-03T10:29:52;100401.59;;;25.78;45.19
65013;BME280;51715;39.432;-77.518;2022-09-03T10:32:26;100400.67;;;25.93;44.85
65013;BME280;51715;39.432;-77.518;2022-09-03T10:35:12;100406.19;;;25.90;44.84
65013;BME280;51715;39.432;-77.518;2022-09-03T10:37:48;100409.26;;;26.02;45.14
65013;BME280;51715;39.432;-77.518;2022-09-03T10:40:25;100407.10;;;25.72;44.66
65013;BME280;51715;39.432;-77.518;2022-09-03T10:43:12;100404.35;;;26.07;44.63
65013;BME280;51715;39.432;-77.518;2022-09-03T10:45:53;100406.77;;;26.20;44.52
65013;BME280;51715;39.432;-77.518;2022-09-03T10:48:40;100412.33;;;26.10;44.65
65013;BME280;51715;39.432;-77.518;2022-09-03T10:51:18;100416.12;;;25.87;45.07
65013;BME280;51715;39.432;-77.518;2022-09-03T10:54:01;100417.97;;;25.83;44.65
65013;BME280;51715;39.432;-77.518;2022-09-03T10:56:39;100420.15;;;25.87;44.68
65013;BME280;51715;39.432;-77.518;2022-09-03T10:59:25;100419.58;;;25.93;44.89
65013;BME280;51715;39.432;-77.518;2022-09-03T11:02:11;100421.38;;;26.03;44.75
65013;BME280;51715;39.432;-77.518;2022-09-03T11:04:49;100424.14;;;25.77;44.96
65013;BME280;51715;39.432;-77.518;2022-09-03T11:07:21;100430.58;;;25.80;44.88
65013;BME280;51715;39.432;-77.518;2022-09-03T11:09:56;100431.76;;;25.98;45.05
65013;BME280;51715;39.432;-77.518;2022-09-03T11:12:31;100434.59;;;26.11;44.97
65013;BME280;51715;39.432;-77.518;2022-09-03T11:15:05;100439.46;;;26.17;44.39
65013;BME280;51715;39.432;-77.518;2022-09-03T11:17:38;100444.71;;;26.40;44.10
65013;BME280;51715;39.432;-77.518;2022-09-03T11:20:13;100447.84;;;26.18;44.54
65013;BME280;51715;39.432;-77.518;2022-09-03T11:22:44;100448.42;;;26.28;44.64
65013;BME280;51715;39.432;-77.518;2022-09-03T11:25:15;100451.86;;;26.35;44.41
65013;BME280;51715;39.432;-77.518;2022-09-03T11:27:53;100446.35;;;26.13;45.34
65013;BME280;51715;39.432;-77.518;2022-09-03T11:30:28;100444.76;;;25.90;44.88
65013;BME280;51715;39.432;-77.518;2022-09-03T11:33:05;100451.97;;;25.97;45.14
65013;BME280;51715;39.432;-77.518;2022-09-03T11:35:40;100453.19;;;26.00;44.77
65013;BME280;51715;39.432;-77.518;2022-09-03T11:38:20;100452.78;;;26.31;43.95
65013;BME280;51715;39.432;-77.518;2022-09-03T11:40:59;100455.29;;;26.95;43.70
65013;BME280;51715;39.432;-77.518;2022-09-03T11:43:30;100455.56;;;26.63;43.40
65013;BME280;51715;39.432;-77.518;2022-09-03T11:46:03;100462.61;;;26.56;44.27
65013;BME280;51715;39.432;-77.518;2022-09-03T11:48:38;100458.68;;;26.63;44.33
65013;BME280;51715;39.432;-77.518;2022-09-03T11:51:40;100461.14;;;26.84;43.19
65013;BME280;51715;39.432;-77.518;2022-09-03T11:54:24;100460.98;;;26.65;43.51
65013;BME280;51715;39.432;-77.518;2022-09-03T11:57:09;100464.34;;;26.34;44.72
65013;BME280;51715;39.432;-77.518;2022-09-03T11:59:39;100464.04;;;26.71;44.24
65013;BME280;51715;39.432;-77.518;2022-09-03T12:02:22;100465.50;;;26.50;44.08
65013;BME280;51715;39.432;-77.518;2022-09-03T12:05:04;100461.88;;;26.74;43.86
65013;BME280;51715;39.432;-77.518;2022-09-03T12:07:47;100471.74;;;26.70;43.60
65013;BME280;51715;39.432;-77.518;2022-09-03T12:10:30;100469.33;;;26.44;43.71
65013;BME280;51715;39.432;-77.518;2022-09-03T12:13:12;100463.28;;;27.14;43.78
65013;BME280;51715;39.432;-77.518;2022-09-03T12:15:57;100460.47;;;26.91;43.72
65013;BME280;51715;39.432;-77.518;2022-09-03T12:18:31;100461.38;;;26.73;44.20
65013;BME280;51715;39.432;-77.518;2022-09-03T12:21:02;100454.91;;;26.47;43.78
65013;BME280;51715;39.432;-77.518;2022-09-03T12:23:34;100454.23;;;26.81;43.70
65013;BME280;51715;39.432;-77.518;2022-09-03T12:26:09;100450.89;;;26.68;43.31
65013;BME280;51715;39.432;-77.518;2022-09-03T12:28:38;100453.49;;;26.12;44.65
65013;BME280;51715;39.432;-77.518;2022-09-03T12:31:09;100447.70;;;26.74;43.26
65013;BME280;51715;39.432;-77.518;2022-09-03T12:33:42;100447.56;;;26.51;44.77
65013;BME280;51715;39.432;-77.518;2022-09-03T12:36:10;100447.91;;;26.70;44.77
65013;BME280;51715;39.432;-77.518;2022-09-03T12:38:41;100443.53;;;26.72;44.10
65013;BME280;51715;39.432;-77.518;2022-09-03T12:41:21;100443.98;;;26.73;42.93
65013;BME280;51715;39.432;-77.518;2022-09-03T12:43:52;100437.80;;;26.99;42.17
65013;BME280;51715;39.432;-77.518;2022-09-03T12:46:25;100437.79;;;27.13;43.04
65013;BME280;51715;39.432;-77.518;2022-09-03T12:48:56;100439.33;;;26.94;44.04
65013;BME280;51715;39.432;-77.518;2022-09-03T12:51:24;100442.54;;;27.05;43.60
65013;BME280;51715;39.432;-77.518;2022-09-03T12:53:54;100439.84;;;27.06;43.30
65013;BME280;51715;39.432;-77.518;2022-09-03T12:56:21;100437.89;;;26.78;44.47
65013;BME280;51715;39.432;-77.518;2022-09-03T12:58:54;100439.50;;;27.05;45.00
65013;BME280;51715;39.432;-77.518;2022-09-03T13:01:27;100438.13;;;26.83;43.99